sensor_id;sensor_type;location;lat;lon;timestamp;temperature;humidity
23685;DHT22;12020;51.384;6.908;2023-09-19T00:01:00;16.80;99.90
23685;DHT22;12020;51.384;6.908;2023-09-19T00:03:30;16.80;99.90
23685;DHT22;12020;51.384;6.908;2023-09-19T00:05:57;16.80;99.90
23685;DHT22;12020;51.384;6.908;2023-09-19T00:08:29;16.80;99.90
23685;DHT22;12020;51.384;6.908;2023-09-19T00:13:36;16.70;99.90
23685;DHT22;12020;51.384;6.908;2023-09-19T00:16:14;16.70;99.90
23685;DHT22;12020;51.384;6.908;2023-09-19T00:19:03;16.70;99.90
23685;DHT22;12020;51.384;6.908;2023-09-19T00:21:44;16.70;99.90
23685;DHT22;12020;51.384;6.908;2023-09-19T00:24:45;16.60;99.90
23685;DHT22;12020;51.384;6.908;2023-09-19T00:27:11;16.70;99.90
23685;DHT22;12020;51.384;6.908;2023-09-19T00:29:46;16.60;99.90
23685;DHT22;12020;51.384;6.908;2023-09-19T00:32:41;16.60;99.90
23685;DHT22;12020;51.384;6.908;2023-09-19T00:35:08;16.60;99.90
23685;DHT22;12020;51.384;6.908;2023-09-19T00:37:36;16.50;99.90
23685;DHT22;12020;51.384;6.908;2023-09-19T00:42:56;16.50;99.90
23685;DHT22;12020;51.384;6.908;2023-09-19T00:48:19;16.50;99.90
23685;DHT22;12020;51.384;6.908;2023-09-19T00:50:46;16.40;99.90
23685;DHT22;12020;51.384;6.908;2023-09-19T00:53:23;16.40;99.90
23685;DHT22;12020;51.384;6.908;2023-09-19T00:55:49;16.40;99.90
23685;DHT22;12020;51.384;6.908;2023-09-19T00:58:18;16.40;99.90
23685;DHT22;12020;51.384;6.908;2023-09-19T01:01:02;16.40;99.90
23685;DHT22;12020;51.384;6.908;2023-09-19T01:03:50;16.40;99.90
23685;DHT22;12020;51.384;6.908;2023-09-19T01:06:19;16.40;99.90
23685;DHT22;12020;51.384;6.908;2023-09-19T01:08:48;16.30;99.90
23685;DHT22;12020;51.384;6.908;2023-09-19T01:11:21;16.30;99.90
23685;DHT22;12020;51.384;6.908;2023-09-19T01:17:38;16.30;99.90
23685;DHT22;12020;51.384;6.908;2023-09-19T01:23:58;16.20;99.90
23685;DHT22;12020;51.384;6.908;2023-09-19T01:31:42;16.20;99.90
23685;DHT22;12020;51.384;6.908;2023-09-19T01:34:20;16.20;99.90
23685;DHT22;12020;51.384;6.908;2023-09-19T01:36:54;16.20;99.90
23685;DHT22;12020;51.384;6.908;2023-09-19T01:39:24;16.20;99.90
23685;DHT22;12020;51.384;6.908;2023-09-19T01:45:07;16.20;99.90
23685;DHT22;12020;51.384;6.908;2023-09-19T01:47:37;16.10;99.90
23685;DHT22;12020;51.384;6.908;2023-09-19T01:53:06;16.10;99.90
23685;DHT22;12020;51.384;6.908;2023-09-19T01:56:07;16.10;99.90
23685;DHT22;12020;51.384;6.908;2023-09-19T01:59:13;16.10;99.90
23685;DHT22;12020;51.384;6.908;2023-09-19T02:02:04;16.00;99.90
23685;DHT22;12020;51.384;6.908;2023-09-19T02:04:33;16.00;99.90
23685;DHT22;12020;51.384;6.908;2023-09-19T02:07:02;16.00;99.90
23685;DHT22;12020;51.384;6.908;2023-09-19T02:09:32;16.00;99.90
23685;DHT22;12020;51.384;6.908;2023-09-19T02:12:05;16.00;99.90
23685;DHT22;12020;51.384;6.908;2023-09-19T02:14:31;15.90;99.90
23685;DHT22;12020;51.384;6.908;2023-09-19T02:17:00;16.00;99.90
23685;DHT22;12020;51.384;6.908;2023-09-19T02:19:37;16.00;99.90
23685;DHT22;12020;51.384;6.908;2023-09-19T02:22:07;16.00;99.90
23685;DHT22;12020;51.384;6.908;2023-09-19T02:24:52;15.90;99.90
23685;DHT22;12020;51.384;6.908;2023-09-19T02:27:27;16.00;99.90
23685;DHT22;12020;51.384;6.908;2023-09-19T02:29:56;15.90;99.90
23685;DHT22;12020;51.384;6.908;2023-09-19T02:32:44;15.90;99.90
23685;DHT22;12020;51.384;6.908;2023-09-19T02:35:18;15.80;99.90
23685;DHT22;12020;51.384;6.908;2023-09-19T02:38:06;15.90;99.90
23685;DHT22;12020;51.384;6.908;2023-09-19T02:40:38;15.80;99.90
23685;DHT22;12020;51.384;6.908;2023-09-19T02:43:04;15.80;99.90
23685;DHT22;12020;51.384;6.908;2023-09-19T02:45:31;15.80;99.90
23685;DHT22;12020;51.384;6.908;2023-09-19T02:51:28;15.80;99.90
23685;DHT22;12020;51.384;6.908;2023-09-19T02:54:13;15.80;99.90
23685;DHT22;12020;51.384;6.908;2023-09-19T02:56:59;15.80;99.90
23685;DHT22;12020;51.384;6.908;2023-09-19T02:59:27;15.70;99.90
23685;DHT22;12020;51.384;6.908;2023-09-19T03:02:05;15.70;99.90
23685;DHT22;12020;51.384;6.908;2023-09-19T03:04:52;15.70;99.90
23685;DHT22;12020;51.384;6.908;2023-09-19T03:07:19;15.70;99.90
23685;DHT22;12020;51.384;6.908;2023-09-19T03:09:50;15.70;99.90
23685;DHT22;12020;51.384;6.908;2023-09-19T03:12:30;15.70;99.90
23685;DHT22;12020;51.384;6.908;2023-09-19T03:15:05;15.70;99.90
23685;DHT22;12020;51.384;6.908;2023-09-19T03:21:03;15.60;99.90
23685;DHT22;12020;51.384;6.908;2023-09-19T03:23:38;15.60;99.90
23685;DHT22;12020;51.384;6.908;2023-09-19T03:26:14;15.60;99.90
23685;DHT22;12020;51.384;6.908;2023-09-19T03:28:49;15.60;99.90
23685;DHT22;12020;51.384;6.908;2023-09-19T03:31:19;15.60;99.90
23685;DHT22;12020;51.384;6.908;2023-09-19T03:33:51;15.60;99.90
23685;DHT22;12020;51.384;6.908;2023-09-19T03:36:16;15.60;99.90
23685;DHT22;12020;51.384;6.908;2023-09-19T03:38:48;15.60;99.90
23685;DHT22;12020;51.384;6.908;2023-09-19T03:41:18;15.60;99.90
23685;DHT22;12020;51.384;6.908;2023-09-19T03:43:56;15.50;99.90
23685;DHT22;12020;51.384;6.908;2023-09-19T03:46:26;15.50;99.90
23685;DHT22;12020;51.384;6.908;2023-09-19T03:49:12;15.50;99.90
23685;DHT22;12020;51.384;6.908;2023-09-19T03:51:51;15.60;99.90
23685;DHT22;12020;51.384;6.908;2023-09-19T03:54:38;15.60;99.90
23685;DHT22;12020;51.384;6.908;2023-09-19T03:57:07;15.60;99.90
23685;DHT22;12020;51.384;6.908;2023-09-19T03:59:44;15.50;99.90
23685;DHT22;12020;51.384;6.908;2023-09-19T04:02:15;15.50;99.90
23685;DHT22;12020;51.384;6.908;2023-09-19T04:04:51;15.50;99.90
23685;DHT22;12020;51.384;6.908;2023-09-19T04:07:21;15.40;99.90
23685;DHT22;12020;51.384;6.908;2023-09-19T04:10:06;15.40;99.90
23685;DHT22;12020;51.384;6.908;2023-09-19T04:12:35;15.40;99.90
23685;DHT22;12020;51.384;6.908;2023-09-19T04:15:25;15.40;99.90
23685;DHT22;12020;51.384;6.908;2023-09-19T04:17:57;15.50;99.90
23685;DHT22;12020;51.384;6.908;2023-09-19T04:20:51;15.40;99.90
23685;DHT22;12020;51.384;6.908;2023-09-19T04:23:28;15.40;99.90
23685;DHT22;12020;51.384;6.908;2023-09-19T04:25:57;15.40;99.90
23685;DHT22;12020;51.384;6.908;2023-09-19T04:28:52;15.40;99.90
23685;DHT22;12020;51.384;6.908;2023-09-19T04:31:19;15.40;99.90
23685;DHT22;12020;51.384;6.908;2023-09-19T04:33:53;15.40;99.90
23685;DHT22;12020;51.384;6.908;2023-09-19T04:39:23;15.40;99.90
23685;DHT22;12020;51.384;6.908;2023-09-19T04:41:52;15.40;99.90
23685;DHT22;12020;51.384;6.908;2023-09-19T04:44:20;15.30;99.90
23685;DHT22;12020;51.384;6.908;2023-09-19T04:46:48;15.30;99.90
23685;DHT22;12020;51.384;6.908;2023-09-19T04:49:14;15.30;99.90
23685;DHT22;12020;51.384;6.908;2023-09-19T04:51:40;15.30;99.90
23685;DHT22;12020;51.384;6.908;2023-09-19T04:54:06;15.30;99.90
23685;DHT22;12020;51.384;6.908;2023-09-19T04:56:33;15.30;99.90
23685;DHT22;12020;51.384;6.908;2023-09-19T04:59:02;15.30;99.90
23685;DHT22;12020;51.384;6.908;2023-09-19T05:01:37;15.30;99.90
23685;DHT22;12020;51.384;6.908;2023-09-19T05:04:25;15.30;99.90
23685;DHT22;12020;51.384;6.908;2023-09-19T05:06:50;15.30;99.90
23685;DHT22;12020;51.384;6.908;2023-09-19T05:09:18;15.30;99.90
23685;DHT22;12020;51.384;6.908;2023-09-19T05:12:05;15.30;99.90
23685;DHT22;12020;51.384;6.908;2023-09-19T05:14:37;15.30;99.90
23685;DHT22;12020;51.384;6.908;2023-09-19T05:17:04;15.30;99.90
23685;DHT22;12020;51.384;6.908;2023-09-19T05:19:36;15.30;99.90
23685;DHT22;12020;51.384;6.908;2023-09-19T05:22:06;15.30;99.90
23685;DHT22;12020;51.384;6.908;2023-09-19T05:24:33;15.30;99.90
23685;DHT22;12020;51.384;6.908;2023-09-19T05:27:05;15.30;99.90
23685;DHT22;12020;51.384;6.908;2023-09-19T05:29:35;15.30;99.90
23685;DHT22;12020;51.384;6.908;2023-09-19T05:35:11;15.30;99.90
23685;DHT22;12020;51.384;6.908;2023-09-19T05:37:57;15.30;99.90
23685;DHT22;12020;51.384;6.908;2023-09-19T05:40:23;15.30;99.90
23685;DHT22;12020;51.384;6.908;2023-09-19T05:42:50;15.30;99.90
23685;DHT22;12020;51.384;6.908;2023-09-19T05:45:17;15.30;99.90
23685;DHT22;12020;51.384;6.908;2023-09-19T05:47:49;15.40;99.90
23685;DHT22;12020;51.384;6.908;2023-09-19T05:50:15;15.40;99.90
23685;DHT22;12020;51.384;6.908;2023-09-19T05:52:42;15.40;99.90
23685;DHT22;12020;51.384;6.908;2023-09-19T05:55:11;15.40;99.90
23685;DHT22;12020;51.384;6.908;2023-09-19T05:57:38;15.40;99.90
23685;DHT22;12020;51.384;6.908;2023-09-19T06:00:05;15.50;99.90
23685;DHT22;12020;51.384;6.908;2023-09-19T06:02:38;15.50;99.90
23685;DHT22;12020;51.384;6.908;2023-09-19T06:05:04;15.50;99.90
23685;DHT22;12020;51.384;6.908;2023-09-19T06:07:32;15.50;99.90
23685;DHT22;12020;51.384;6.908;2023-09-19T06:10:05;15.50;99.90
23685;DHT22;12020;51.384;6.908;2023-09-19T06:12:37;15.60;99.90
23685;DHT22;12020;51.384;6.908;2023-09-19T06:15:04;15.60;99.90
23685;DHT22;12020;51.384;6.908;2023-09-19T06:17:31;15.60;99.90
23685;DHT22;12020;51.384;6.908;2023-09-19T06:19:58;15.60;99.90
23685;DHT22;12020;51.384;6.908;2023-09-19T06:22:28;15.60;99.90
23685;DHT22;12020;51.384;6.908;2023-09-19T06:25:04;15.80;99.90
23685;DHT22;12020;51.384;6.908;2023-09-19T06:27:45;15.90;99.90
23685;DHT22;12020;51.384;6.908;2023-09-19T06:30:15;15.90;99.90
23685;DHT22;12020;51.384;6.908;2023-09-19T06:32:48;15.80;99.90
23685;DHT22;12020;51.384;6.908;2023-09-19T06:35:22;15.80;99.90
23685;DHT22;12020;51.384;6.908;2023-09-19T06:38:18;15.80;99.90
23685;DHT22;12020;51.384;6.908;2023-09-19T06:40:52;15.80;99.90
23685;DHT22;12020;51.384;6.908;2023-09-19T06:43:18;15.80;99.90
23685;DHT22;12020;51.384;6.908;2023-09-19T06:45:47;15.80;99.90
23685;DHT22;12020;51.384;6.908;2023-09-19T06:48:16;15.80;99.90
23685;DHT22;12020;51.384;6.908;2023-09-19T06:50:47;15.80;99.90
23685;DHT22;12020;51.384;6.908;2023-09-19T06:53:24;15.80;99.90
23685;DHT22;12020;51.384;6.908;2023-09-19T06:55:58;15.80;99.90
23685;DHT22;12020;51.384;6.908;2023-09-19T06:58:36;15.90;99.90
23685;DHT22;12020;51.384;6.908;2023-09-19T07:01:22;15.90;99.90
23685;DHT22;12020;51.384;6.908;2023-09-19T07:03:51;15.90;99.90
23685;DHT22;12020;51.384;6.908;2023-09-19T07:06:18;15.90;99.90
23685;DHT22;12020;51.384;6.908;2023-09-19T07:08:47;15.90;99.90
23685;DHT22;12020;51.384;6.908;2023-09-19T07:11:16;16.00;99.90
23685;DHT22;12020;51.384;6.908;2023-09-19T07:13:43;16.00;99.90
23685;DHT22;12020;51.384;6.908;2023-09-19T07:16:31;16.00;99.90
23685;DHT22;12020;51.384;6.908;2023-09-19T07:19:20;16.10;99.90
23685;DHT22;12020;51.384;6.908;2023-09-19T07:21:47;16.10;99.90
23685;DHT22;12020;51.384;6.908;2023-09-19T07:24:16;16.10;99.90
23685;DHT22;12020;51.384;6.908;2023-09-19T07:27:04;16.20;99.90
23685;DHT22;12020;51.384;6.908;2023-09-19T07:29:39;16.20;99.90
23685;DHT22;12020;51.384;6.908;2023-09-19T07:32:11;16.20;99.90
23685;DHT22;12020;51.384;6.908;2023-09-19T07:34:58;16.30;99.90
23685;DHT22;12020;51.384;6.908;2023-09-19T07:37:24;16.30;99.90
23685;DHT22;12020;51.384;6.908;2023-09-19T07:39:51;16.40;99.90
23685;DHT22;12020;51.384;6.908;2023-09-19T07:42:17;16.40;99.90
23685;DHT22;12020;51.384;6.908;2023-09-19T07:44:43;16.40;99.90
23685;DHT22;12020;51.384;6.908;2023-09-19T07:47:13;16.50;99.90
23685;DHT22;12020;51.384;6.908;2023-09-19T07:49:46;16.50;99.90
23685;DHT22;12020;51.384;6.908;2023-09-19T07:52:17;16.50;99.90
23685;DHT22;12020;51.384;6.908;2023-09-19T07:54:51;16.60;99.90
23685;DHT22;12020;51.384;6.908;2023-09-19T07:57:27;16.60;99.90
23685;DHT22;12020;51.384;6.908;2023-09-19T07:59:59;16.60;99.90
23685;DHT22;12020;51.384;6.908;2023-09-19T08:02:39;16.60;99.90
23685;DHT22;12020;51.384;6.908;2023-09-19T08:05:06;16.60;99.90
23685;DHT22;12020;51.384;6.908;2023-09-19T08:07:36;16.70;99.90
23685;DHT22;12020;51.384;6.908;2023-09-19T08:10:03;16.70;99.90
23685;DHT22;12020;51.384;6.908;2023-09-19T08:12:30;16.70;99.90
23685;DHT22;12020;51.384;6.908;2023-09-19T08:14:57;16.70;99.90
23685;DHT22;12020;51.384;6.908;2023-09-19T08:17:26;16.70;99.90
23685;DHT22;12020;51.384;6.908;2023-09-19T08:20:01;16.80;99.90
23685;DHT22;12020;51.384;6.908;2023-09-19T08:22:31;17.00;99.90
23685;DHT22;12020;51.384;6.908;2023-09-19T08:25:22;16.90;99.90
23685;DHT22;12020;51.384;6.908;2023-09-19T08:27:50;17.00;99.90
23685;DHT22;12020;51.384;6.908;2023-09-19T08:30:17;17.00;99.90
23685;DHT22;12020;51.384;6.908;2023-09-19T08:33:05;17.10;99.90
23685;DHT22;12020;51.384;6.908;2023-09-19T08:35:33;17.20;99.90
23685;DHT22;12020;51.384;6.908;2023-09-19T08:38:01;17.20;99.90
23685;DHT22;12020;51.384;6.908;2023-09-19T08:40:39;17.30;99.90
23685;DHT22;12020;51.384;6.908;2023-09-19T08:43:10;17.40;99.90
23685;DHT22;12020;51.384;6.908;2023-09-19T08:45:39;17.50;99.90
23685;DHT22;12020;51.384;6.908;2023-09-19T08:50:58;17.70;99.90
23685;DHT22;12020;51.384;6.908;2023-09-19T08:56:24;17.90;99.90
23685;DHT22;12020;51.384;6.908;2023-09-19T08:58:57;18.00;99.90
23685;DHT22;12020;51.384;6.908;2023-09-19T09:01:31;18.10;99.90
23685;DHT22;12020;51.384;6.908;2023-09-19T09:04:20;18.20;99.90
23685;DHT22;12020;51.384;6.908;2023-09-19T09:06:51;18.30;99.90
23685;DHT22;12020;51.384;6.908;2023-09-19T09:09:33;18.40;99.90
23685;DHT22;12020;51.384;6.908;2023-09-19T09:12:17;18.40;99.90
23685;DHT22;12020;51.384;6.908;2023-09-19T09:14:44;18.50;99.90
23685;DHT22;12020;51.384;6.908;2023-09-19T09:17:16;18.60;99.90
23685;DHT22;12020;51.384;6.908;2023-09-19T09:19:58;18.70;99.90
23685;DHT22;12020;51.384;6.908;2023-09-19T09:22:30;18.90;99.90
23685;DHT22;12020;51.384;6.908;2023-09-19T09:24:58;19.00;99.90
23685;DHT22;12020;51.384;6.908;2023-09-19T09:27:30;19.10;99.90
23685;DHT22;12020;51.384;6.908;2023-09-19T09:30:00;19.20;99.90
23685;DHT22;12020;51.384;6.908;2023-09-19T09:35:57;19.20;99.90
23685;DHT22;12020;51.384;6.908;2023-09-19T09:38:30;19.30;99.90
23685;DHT22;12020;51.384;6.908;2023-09-19T09:41:35;19.40;99.90
23685;DHT22;12020;51.384;6.908;2023-09-19T09:44:21;19.50;99.90
23685;DHT22;12020;51.384;6.908;2023-09-19T09:47:40;19.50;99.90
23685;DHT22;12020;51.384;6.908;2023-09-19T09:50:07;19.60;99.90
23685;DHT22;12020;51.384;6.908;2023-09-19T09:52:46;19.60;99.90
23685;DHT22;12020;51.384;6.908;2023-09-19T09:55:13;19.60;99.90
23685;DHT22;12020;51.384;6.908;2023-09-19T09:57:46;19.60;99.90
23685;DHT22;12020;51.384;6.908;2023-09-19T10:01:10;19.60;99.90
23685;DHT22;12020;51.384;6.908;2023-09-19T10:03:37;19.70;99.90
23685;DHT22;12020;51.384;6.908;2023-09-19T10:06:40;19.70;99.90
23685;DHT22;12020;51.384;6.908;2023-09-19T10:09:07;19.80;99.90
23685;DHT22;12020;51.384;6.908;2023-09-19T10:12:03;19.80;99.90
23685;DHT22;12020;51.384;6.908;2023-09-19T10:14:30;19.80;99.90
23685;DHT22;12020;51.384;6.908;2023-09-19T10:17:04;19.90;99.90
23685;DHT22;12020;51.384;6.908;2023-09-19T10:22:28;20.10;99.90
23685;DHT22;12020;51.384;6.908;2023-09-19T10:25:15;20.10;99.90
23685;DHT22;12020;51.384;6.908;2023-09-19T10:27:57;20.10;99.90
23685;DHT22;12020;51.384;6.908;2023-09-19T10:30:46;20.00;99.90
23685;DHT22;12020;51.384;6.908;2023-09-19T10:33:16;20.00;99.90
23685;DHT22;12020;51.384;6.908;2023-09-19T10:35:46;20.20;99.90
23685;DHT22;12020;51.384;6.908;2023-09-19T10:38:17;20.30;99.90
23685;DHT22;12020;51.384;6.908;2023-09-19T10:40:51;20.50;99.90
23685;DHT22;12020;51.384;6.908;2023-09-19T10:43:19;20.50;99.90
23685;DHT22;12020;51.384;6.908;2023-09-19T10:45:46;20.50;99.90
23685;DHT22;12020;51.384;6.908;2023-09-19T10:51:16;20.60;99.90
23685;DHT22;12020;51.384;6.908;2023-09-19T10:53:50;20.80;99.90
23685;DHT22;12020;51.384;6.908;2023-09-19T10:56:38;20.90;99.90
23685;DHT22;12020;51.384;6.908;2023-09-19T10:59:14;20.90;99.90
23685;DHT22;12020;51.384;6.908;2023-09-19T11:01:47;20.90;99.90
23685;DHT22;12020;51.384;6.908;2023-09-19T11:07:03;20.80;99.90
23685;DHT22;12020;51.384;6.908;2023-09-19T11:18:00;20.80;99.90
23685;DHT22;12020;51.384;6.908;2023-09-19T11:20:27;20.80;99.90
23685;DHT22;12020;51.384;6.908;2023-09-19T11:25:44;20.60;99.90
23685;DHT22;12020;51.384;6.908;2023-09-19T11:30:48;20.70;99.90
23685;DHT22;12020;51.384;6.908;2023-09-19T11:33:22;20.70;99.90
23685;DHT22;12020;51.384;6.908;2023-09-19T11:46:29;20.50;99.90
23685;DHT22;12020;51.384;6.908;2023-09-19T11:49:06;20.70;99.90
23685;DHT22;12020;51.384;6.908;2023-09-19T11:51:42;20.80;99.90
23685;DHT22;12020;51.384;6.908;2023-09-19T11:54:25;20.90;99.90
23685;DHT22;12020;51.384;6.908;2023-09-19T11:57:03;20.90;99.90
23685;DHT22;12020;51.384;6.908;2023-09-19T11:59:57;20.90;99.90
23685;DHT22;12020;51.384;6.908;2023-09-19T12:02:42;20.80;99.90
23685;DHT22;12020;51.384;6.908;2023-09-19T12:07:51;20.90;99.90
23685;DHT22;12020;51.384;6.908;2023-09-19T12:10:20;20.80;99.90
23685;DHT22;12020;51.384;6.908;2023-09-19T12:13:04;20.80;99.90
23685;DHT22;12020;51.384;6.908;2023-09-19T12:15:40;20.80;99.90
23685;DHT22;12020;51.384;6.908;2023-09-19T12:21:07;20.80;99.90
23685;DHT22;12020;51.384;6.908;2023-09-19T12:23:38;20.80;99.90
23685;DHT22;12020;51.384;6.908;2023-09-19T12:26:07;20.80;99.90
23685;DHT22;12020;51.384;6.908;2023-09-19T12:31:34;20.80;99.90
23685;DHT22;12020;51.384;6.908;2023-09-19T12:34:03;20.80;99.90
23685;DHT22;12020;51.384;6.908;2023-09-19T12:36:31;20.80;99.90
23685;DHT22;12020;51.384;6.908;2023-09-19T12:38:59;20.70;99.90
23685;DHT22;12020;51.384;6.908;2023-09-19T12:42:09;20.60;99.90
23685;DHT22;12020;51.384;6.908;2023-09-19T12:53:37;20.70;99.90
23685;DHT22;12020;51.384;6.908;2023-09-19T12:56:23;20.70;99.90
23685;DHT22;12020;51.384;6.908;2023-09-19T13:08:26;20.80;99.90
23685;DHT22;12020;51.384;6.908;2023-09-19T13:11:12;20.80;99.90
23685;DHT22;12020;51.384;6.908;2023-09-19T13:23:02;20.60;99.90
23685;DHT22;12020;51.384;6.908;2023-09-19T13:25:52;20.50;99.90
23685;DHT22;12020;51.384;6.908;2023-09-19T13:28:29;20.40;99.90
23685;DHT22;12020;51.384;6.908;2023-09-19T13:31:39;20.50;99.90
23685;DHT22;12020;51.384;6.908;2023-09-19T13:34:15;20.40;99.90
23685;DHT22;12020;51.384;6.908;2023-09-19T13:36:42;20.30;99.90
23685;DHT22;12020;51.384;6.908;2023-09-19T13:45:17;20.30;99.90
23685;DHT22;12020;51.384;6.908;2023-09-19T13:47:47;20.30;99.90
23685;DHT22;12020;51.384;6.908;2023-09-19T13:50:14;20.30;99.90
23685;DHT22;12020;51.384;6.908;2023-09-19T13:53:02;20.30;99.90
23685;DHT22;12020;51.384;6.908;2023-09-19T13:55:35;20.20;99.90
23685;DHT22;12020;51.384;6.908;2023-09-19T14:06:55;20.20;99.90
23685;DHT22;12020;51.384;6.908;2023-09-19T14:09:22;20.20;99.90
23685;DHT22;12020;51.384;6.908;2023-09-19T14:35:47;20.00;99.90
23685;DHT22;12020;51.384;6.908;2023-09-19T14:38:15;20.00;99.90
23685;DHT22;12020;51.384;6.908;2023-09-19T14:41:05;20.00;99.90
23685;DHT22;12020;51.384;6.908;2023-09-19T14:43:48;19.90;99.90
23685;DHT22;12020;51.384;6.908;2023-09-19T14:46:40;19.90;99.90
23685;DHT22;12020;51.384;6.908;2023-09-19T14:49:15;19.90;99.90
23685;DHT22;12020;51.384;6.908;2023-09-19T14:52:06;19.90;99.90
23685;DHT22;12020;51.384;6.908;2023-09-19T14:55:24;19.80;99.90
23685;DHT22;12020;51.384;6.908;2023-09-19T14:57:53;19.80;99.90
23685;DHT22;12020;51.384;6.908;2023-09-19T15:00:41;19.80;99.90
23685;DHT22;12020;51.384;6.908;2023-09-19T15:03:08;19.80;99.90
23685;DHT22;12020;51.384;6.908;2023-09-19T15:06:05;19.80;99.90
23685;DHT22;12020;51.384;6.908;2023-09-19T15:08:40;19.80;99.90
23685;DHT22;12020;51.384;6.908;2023-09-19T15:11:23;19.70;99.90
23685;DHT22;12020;51.384;6.908;2023-09-19T15:23:49;19.70;99.90
23685;DHT22;12020;51.384;6.908;2023-09-19T15:26:40;19.70;99.90
23685;DHT22;12020;51.384;6.908;2023-09-19T15:29:15;19.70;99.90
23685;DHT22;12020;51.384;6.908;2023-09-19T15:31:50;19.70;99.90
23685;DHT22;12020;51.384;6.908;2023-09-19T15:34:19;19.70;99.90
23685;DHT22;12020;51.384;6.908;2023-09-19T15:36:45;19.70;99.90
23685;DHT22;12020;51.384;6.908;2023-09-19T15:39:17;19.70;99.90
23685;DHT22;12020;51.384;6.908;2023-09-19T15:41:45;19.70;99.90
23685;DHT22;12020;51.384;6.908;2023-09-19T15:44:15;19.70;99.90
23685;DHT22;12020;51.384;6.908;2023-09-19T15:46:41;19.70;99.90
23685;DHT22;12020;51.384;6.908;2023-09-19T15:49:11;19.70;99.90
23685;DHT22;12020;51.384;6.908;2023-09-19T15:51:42;19.80;99.90
23685;DHT22;12020;51.384;6.908;2023-09-19T15:56:44;19.80;99.90
23685;DHT22;12020;51.384;6.908;2023-09-19T15:59:10;19.80;99.90
23685;DHT22;12020;51.384;6.908;2023-09-19T16:02:18;19.80;99.90
23685;DHT22;12020;51.384;6.908;2023-09-19T16:05:22;19.80;99.90
23685;DHT22;12020;51.384;6.908;2023-09-19T16:08:09;19.90;99.90
23685;DHT22;12020;51.384;6.908;2023-09-19T16:10:41;19.90;99.90
23685;DHT22;12020;51.384;6.908;2023-09-19T16:13:15;19.90;99.90
23685;DHT22;12020;51.384;6.908;2023-09-19T16:16:01;19.80;99.90
23685;DHT22;12020;51.384;6.908;2023-09-19T16:18:38;19.80;99.90
23685;DHT22;12020;51.384;6.908;2023-09-19T16:21:06;19.80;99.90
23685;DHT22;12020;51.384;6.908;2023-09-19T16:23:58;19.70;99.90
23685;DHT22;12020;51.384;6.908;2023-09-19T16:26:45;19.70;99.90
23685;DHT22;12020;51.384;6.908;2023-09-19T16:29:39;19.70;99.90
23685;DHT22;12020;51.384;6.908;2023-09-19T16:32:16;19.70;99.90
23685;DHT22;12020;51.384;6.908;2023-09-19T16:35:27;19.70;99.90
23685;DHT22;12020;51.384;6.908;2023-09-19T16:37:54;19.70;99.90
23685;DHT22;12020;51.384;6.908;2023-09-19T16:40:20;19.70;99.90
23685;DHT22;12020;51.384;6.908;2023-09-19T16:42:48;19.80;99.90
23685;DHT22;12020;51.384;6.908;2023-09-19T16:45:14;19.70;99.90
23685;DHT22;12020;51.384;6.908;2023-09-19T16:50:34;19.70;99.90
23685;DHT22;12020;51.384;6.908;2023-09-19T16:53:25;19.70;99.90
23685;DHT22;12020;51.384;6.908;2023-09-19T16:56:01;19.70;99.90
23685;DHT22;12020;51.384;6.908;2023-09-19T16:58:58;19.70;99.90
23685;DHT22;12020;51.384;6.908;2023-09-19T17:01:45;19.70;99.90
23685;DHT22;12020;51.384;6.908;2023-09-19T17:04:34;19.70;99.90
23685;DHT22;12020;51.384;6.908;2023-09-19T17:06:59;19.70;99.90
23685;DHT22;12020;51.384;6.908;2023-09-19T17:09:46;19.70;99.90
23685;DHT22;12020;51.384;6.908;2023-09-19T17:12:12;19.60;99.90
23685;DHT22;12020;51.384;6.908;2023-09-19T17:14:39;19.60;99.90
23685;DHT22;12020;51.384;6.908;2023-09-19T17:17:05;19.60;99.90
23685;DHT22;12020;51.384;6.908;2023-09-19T17:19:31;19.60;99.90
23685;DHT22;12020;51.384;6.908;2023-09-19T17:21:58;19.60;99.90
23685;DHT22;12020;51.384;6.908;2023-09-19T17:24:25;19.60;99.90
23685;DHT22;12020;51.384;6.908;2023-09-19T17:26:51;19.60;99.90
23685;DHT22;12020;51.384;6.908;2023-09-19T17:29:17;19.60;99.90
23685;DHT22;12020;51.384;6.908;2023-09-19T17:31:44;19.60;99.90
23685;DHT22;12020;51.384;6.908;2023-09-19T17:34:14;19.60;99.90
23685;DHT22;12020;51.384;6.908;2023-09-19T17:36:41;19.50;99.90
23685;DHT22;12020;51.384;6.908;2023-09-19T17:39:08;19.50;99.90
23685;DHT22;12020;51.384;6.908;2023-09-19T17:41:35;19.50;99.90
23685;DHT22;12020;51.384;6.908;2023-09-19T17:44:00;19.50;99.90
23685;DHT22;12020;51.384;6.908;2023-09-19T17:46:26;19.50;99.90
23685;DHT22;12020;51.384;6.908;2023-09-19T17:48:56;19.50;99.90
23685;DHT22;12020;51.384;6.908;2023-09-19T17:51:22;19.50;99.90
23685;DHT22;12020;51.384;6.908;2023-09-19T17:53:48;19.40;99.90
23685;DHT22;12020;51.384;6.908;2023-09-19T17:56:14;19.40;99.90
23685;DHT22;12020;51.384;6.908;2023-09-19T17:58:41;19.40;99.90
23685;DHT22;12020;51.384;6.908;2023-09-19T18:01:17;19.40;99.90
23685;DHT22;12020;51.384;6.908;2023-09-19T18:03:45;19.40;99.90
23685;DHT22;12020;51.384;6.908;2023-09-19T18:06:11;19.40;99.90
23685;DHT22;12020;51.384;6.908;2023-09-19T18:08:37;19.40;99.90
23685;DHT22;12020;51.384;6.908;2023-09-19T18:11:03;19.40;99.90
23685;DHT22;12020;51.384;6.908;2023-09-19T18:13:29;19.30;99.90
23685;DHT22;12020;51.384;6.908;2023-09-19T18:15:55;19.30;99.90
23685;DHT22;12020;51.384;6.908;2023-09-19T18:18:25;19.30;99.90
23685;DHT22;12020;51.384;6.908;2023-09-19T18:20:50;19.30;99.90
23685;DHT22;12020;51.384;6.908;2023-09-19T18:23:16;19.30;99.90
23685;DHT22;12020;51.384;6.908;2023-09-19T18:25:43;19.30;99.90
23685;DHT22;12020;51.384;6.908;2023-09-19T18:28:11;19.30;99.90
23685;DHT22;12020;51.384;6.908;2023-09-19T18:30:36;19.30;99.90
23685;DHT22;12020;51.384;6.908;2023-09-19T18:33:02;19.20;99.90
23685;DHT22;12020;51.384;6.908;2023-09-19T18:35:27;19.20;99.90
23685;DHT22;12020;51.384;6.908;2023-09-19T18:37:55;19.20;99.90
23685;DHT22;12020;51.384;6.908;2023-09-19T18:40:22;19.20;99.90
23685;DHT22;12020;51.384;6.908;2023-09-19T18:42:48;19.10;99.90
23685;DHT22;12020;51.384;6.908;2023-09-19T18:45:14;19.10;99.90
23685;DHT22;12020;51.384;6.908;2023-09-19T18:47:40;19.10;99.90
23685;DHT22;12020;51.384;6.908;2023-09-19T18:50:06;19.10;99.90
23685;DHT22;12020;51.384;6.908;2023-09-19T18:52:35;19.00;99.90
23685;DHT22;12020;51.384;6.908;2023-09-19T18:55:03;19.00;99.90
23685;DHT22;12020;51.384;6.908;2023-09-19T18:57:30;19.00;99.90
23685;DHT22;12020;51.384;6.908;2023-09-19T18:59:56;19.00;99.90
23685;DHT22;12020;51.384;6.908;2023-09-19T19:02:22;19.00;99.90
23685;DHT22;12020;51.384;6.908;2023-09-19T19:04:49;19.00;99.90
23685;DHT22;12020;51.384;6.908;2023-09-19T19:07:17;19.00;99.90